Time;durP1;ratioP1;P1;durP2;ratioP2;P2;SDS_P1;SDS_P2;PMS_P1;PMS_P2;Temp;Humidity;BMP_temperature;BMP_pressure;BME280_temperature;BME280_humidity;BME280_pressure;Samples;Min_cycle;Max_cycle;Signal;HPM_P1;HPM_P2
2022/01/07 09:47:17;;;;;;;3.03;1.57;;;6.00;99.90;;;;;;4878489;29;20221;-73
2022/01/07 09:49:44;;;;;;;2.77;1.43;;;6.00;99.90;;;;;;4880743;29;20294;-73
2022/01/07 09:52:11;;;;;;;2.40;1.27;;;6.00;99.90;;;;;;4876174;29;20248;-73
2022/01/07 09:54:39;;;;;;;5.37;1.10;;;6.00;99.90;;;;;;4862947;29;20220;-76
2022/01/07 09:57:08;;;;;;;5.53;1.80;;;6.00;99.90;;;;;;4862826;29;20212;-73
2022/01/07 09:59:35;;;;;;;4.03;1.40;;;6.00;99.90;;;;;;4862922;29;20218;-72
2022/01/07 10:02:03;;;;;;;5.97;1.70;;;6.00;99.90;;;;;;4863044;29;20236;-76
2022/01/07 10:04:33;;;;;;;3.73;1.40;;;6.10;99.90;;;;;;4863043;29;20212;-75
2022/01/07 10:07:11;;;;;;;4.33;1.30;;;6.10;99.90;;;;;;4862856;29;20307;-73
2022/01/07 10:09:38;;;;;;;4.83;1.40;;;6.20;99.90;;;;;;4862830;29;20245;-73
2022/01/07 10:12:06;;;;;;;3.17;1.43;;;6.10;99.90;;;;;;4862527;29;20254;-74
2022/01/07 10:14:34;;;;;;;2.03;0.80;;;6.20;99.90;;;;;;4862522;29;20292;-72
2022/01/07 10:17:02;;;;;;;4.80;1.27;;;6.30;99.90;;;;;;4862605;29;20294;-75
2022/01/07 10:19:32;;;;;;;4.73;1.30;;;6.50;99.90;;;;;;4862630;29;20262;-74
2022/01/07 10:22:00;;;;;;;3.33;1.20;;;6.60;99.90;;;;;;4862246;29;20239;-76
2022/01/07 10:24:27;;;;;;;4.17;1.53;;;6.60;99.90;;;;;;4861977;29;20298;-75
2022/01/07 10:27:11;;;;;;;3.40;1.50;;;6.70;99.90;;;;;;4862890;29;20208;-75
2022/01/07 10:29:42;;;;;;;4.27;1.73;;;6.80;99.90;;;;;;4862711;29;20212;-73
2022/01/07 10:32:24;;;;;;;2.73;1.20;;;6.90;99.90;;;;;;4861988;29;20711;-77
2022/01/07 10:35:13;;;;;;;6.40;1.40;;;7.00;99.90;;;;;;4862400;29;20212;-74
2022/01/07 10:37:48;;;;;;;5.07;1.30;;;6.90;99.90;;;;;;4862575;29;20268;-72
2022/01/07 10:40:37;;;;;;;3.00;1.00;;;6.90;99.90;;;;;;4862376;29;20214;-73
2022/01/07 10:43:16;;;;;;;7.80;1.50;;;6.90;99.90;;;;;;4856960;29;20247;-74
2022/01/07 10:45:45;;;;;;;9.87;1.40;;;6.80;99.90;;;;;;4862358;29;20607;-72
2022/01/07 10:48:12;;;;;;;5.03;0.93;;;6.80;99.90;;;;;;4862374;29;20208;-73
2022/01/07 10:50:43;;;;;;;2.70;1.00;;;6.90;99.90;;;;;;4862048;29;20717;-73
2022/01/07 10:53:28;;;;;;;1.67;0.70;;;7.00;99.90;;;;;;4862070;29;20228;-74
2022/01/07 10:56:06;;;;;;;4.63;1.20;;;6.80;99.90;;;;;;4861382;29;20212;-72
2022/01/07 10:58:58;;;;;;;2.27;0.87;;;6.70;99.90;;;;;;4862123;29;20271;-75
2022/01/07 11:01:41;;;;;;;2.80;1.23;;;6.70;99.90;;;;;;4861869;29;20238;-75
2022/01/07 11:04:10;;;;;;;3.07;0.80;;;6.80;99.90;;;;;;4861867;29;20374;-76
2022/01/07 11:06:40;;;;;;;1.37;0.60;;;6.70;99.90;;;;;;4861815;29;20220;-74
2022/01/07 11:09:09;;;;;;;2.00;0.90;;;6.70;99.90;;;;;;4861840;29;20555;-76
2022/01/07 11:11:45;;;;;;;1.83;0.70;;;6.70;99.90;;;;;;4861657;29;20244;-75
2022/01/07 11:14:16;;;;;;;3.73;0.77;;;6.60;99.90;;;;;;4861725;29;20593;-75
2022/01/07 11:16:43;;;;;;;1.10;0.60;;;6.50;99.90;;;;;;4861701;29;20212;-75
2022/01/07 11:19:10;;;;;;;2.83;0.80;;;6.60;99.90;;;;;;4861717;29;20212;-75
2022/01/07 11:21:40;;;;;;;1.57;0.70;;;6.60;99.90;;;;;;4861564;29;20212;-75
2022/01/07 11:24:32;;;;;;;4.27;0.70;;;6.60;99.90;;;;;;4861780;29;20212;-74
2022/01/07 11:27:00;;;;;;;2.73;0.80;;;6.60;99.90;;;;;;4861261;29;20208;-75
2022/01/07 11:29:28;;;;;;;3.10;0.90;;;6.60;99.90;;;;;;4861553;29;20212;-75
2022/01/07 11:31:55;;;;;;;3.77;0.90;;;6.60;99.90;;;;;;4861119;29;20247;-74
2022/01/07 11:34:26;;;;;;;2.93;0.53;;;6.60;99.90;;;;;;4861063;29;20211;-74
2022/01/07 11:36:54;;;;;;;1.73;0.90;;;6.60;99.90;;;;;;4860949;29;20223;-74
2022/01/07 11:39:22;;;;;;;0.70;0.50;;;6.50;99.90;;;;;;4861230;29;20216;-74
2022/01/07 11:41:53;;;;;;;2.87;0.73;;;6.50;99.90;;;;;;4861056;29;20292;-75
2022/01/07 11:44:26;;;;;;;3.00;0.70;;;6.40;99.90;;;;;;4861290;29;20295;-74
2022/01/07 11:47:12;;;;;;;3.30;0.90;;;6.30;99.90;;;;;;4860798;29;20758;-75
2022/01/07 11:49:39;;;;;;;2.70;0.87;;;6.20;99.90;;;;;;4860977;29;20218;-74
2022/01/07 11:52:37;;;;;;;2.17;1.03;;;6.20;99.90;;;;;;4861108;29;20254;-77
2022/01/07 11:55:24;;;;;;;1.43;0.80;;;6.10;99.90;;;;;;4861328;29;20303;-75
2022/01/07 11:57:54;;;;;;;1.23;1.10;;;6.00;99.90;;;;;;4860982;29;20303;-73
2022/01/07 12:00:57;;;;;;;1.13;0.63;;;6.00;99.90;;;;;;4860861;29;20594;-74
2022/01/07 12:03:32;;;;;;;4.20;1.23;;;5.90;99.90;;;;;;4860932;29;20232;-74
2022/01/07 12:05:58;;;;;;;3.80;1.10;;;6.00;99.90;;;;;;4860666;29;20229;-75
2022/01/07 12:08:40;;;;;;;6.20;1.57;;;6.00;99.90;;;;;;4860512;29;20211;-74
2022/01/07 12:11:11;;;;;;;5.17;0.90;;;6.10;99.90;;;;;;4860963;29;20295;-77
2022/01/07 12:13:39;;;;;;;2.00;1.13;;;6.00;99.90;;;;;;4860726;29;20733;-78
2022/01/07 12:16:06;;;;;;;4.37;1.00;;;6.00;99.90;;;;;;4860679;29;20212;-77
2022/01/07 12:18:34;;;;;;;1.70;1.07;;;6.10;99.90;;;;;;4860624;29;20222;-76
2022/01/07 12:21:01;;;;;;;0.93;0.70;;;6.10;99.90;;;;;;4860924;29;20216;-76
2022/01/07 12:23:28;;;;;;;1.27;0.80;;;6.10;99.90;;;;;;4860749;29;20707;-75
2022/01/07 12:26:03;;;;;;;0.90;0.60;;;6.20;99.90;;;;;;4860899;29;20212;-74
2022/01/07 12:28:36;;;;;;;2.10;0.80;;;6.10;99.90;;;;;;4860455;29;20561;-76
2022/01/07 12:31:07;;;;;;;2.57;0.70;;;6.10;99.90;;;;;;4860437;29;20239;-77
2022/01/07 12:33:34;;;;;;;1.70;0.80;;;6.10;99.90;;;;;;4860405;29;20592;-74
2022/01/07 12:36:01;;;;;;;1.00;0.70;;;6.20;99.90;;;;;;4860745;29;20679;-75
2022/01/07 12:38:28;;;;;;;2.50;0.57;;;6.20;99.90;;;;;;4860845;29;20303;-74
2022/01/07 12:41:00;;;;;;;1.47;0.73;;;6.20;99.90;;;;;;4860592;29;20216;-75
2022/01/07 12:43:36;;;;;;;3.30;0.90;;;6.10;99.90;;;;;;4860192;29;20247;-75
2022/01/07 12:46:05;;;;;;;5.37;0.80;;;6.10;99.90;;;;;;4860340;29;20223;-77
2022/01/07 12:48:35;;;;;;;1.80;0.60;;;6.20;99.90;;;;;;4862875;29;20207;-78
2022/01/07 12:51:03;;;;;;;1.20;0.70;;;6.20;99.90;;;;;;4864374;29;20583;-78
2022/01/07 12:53:30;;;;;;;2.07;0.90;;;6.20;99.90;;;;;;4864317;29;20242;-77
2022/01/07 12:56:25;;;;;;;5.17;1.10;;;6.20;99.90;;;;;;4864017;29;20222;-74
2022/01/07 12:58:52;;;;;;;1.07;0.60;;;6.30;99.90;;;;;;4864400;29;20212;-75
2022/01/07 13:01:23;;;;;;;1.27;0.40;;;6.40;99.90;;;;;;4864039;29;20561;-76
2022/01/07 13:04:01;;;;;;;1.70;0.60;;;6.20;99.90;;;;;;4863868;29;20231;-74
2022/01/07 13:06:29;;;;;;;1.40;0.40;;;6.10;99.90;;;;;;4863885;29;20675;-75
2022/01/07 13:08:56;;;;;;;1.00;0.27;;;6.10;99.90;;;;;;4863853;29;20239;-75
2022/01/07 13:11:24;;;;;;;1.40;0.30;;;6.00;99.90;;;;;;4863795;29;20699;-75
2022/01/07 13:14:02;;;;;;;5.63;0.40;;;6.00;99.90;;;;;;4863957;29;20235;-75
2022/01/07 13:16:30;;;;;;;2.37;0.30;;;6.00;99.90;;;;;;4863636;29;20216;-75
2022/01/07 13:19:01;;;;;;;4.33;0.30;;;6.00;99.90;;;;;;4863630;29;20598;-75
2022/01/07 13:21:28;;;;;;;2.37;0.20;;;6.00;99.90;;;;;;4858287;29;20222;-73
2022/01/07 13:23:57;;;;;;;2.93;0.50;;;6.00;99.90;;;;;;4863640;29;20208;-73
2022/01/07 13:26:27;;;;;;;0.47;0.10;;;5.90;99.90;;;;;;4863778;29;20268;-74
2022/01/07 13:28:55;;;;;;;0.70;0.30;;;5.90;99.90;;;;;;4863534;29;20216;-73
2022/01/07 13:31:31;;;;;;;0.37;0.17;;;5.90;99.90;;;;;;4862744;29;20606;-73
2022/01/07 13:33:57;;;;;;;1.93;0.20;;;5.90;99.90;;;;;;4864256;29;20306;-74
2022/01/07 13:36:35;;;;;;;2.70;0.27;;;5.80;99.90;;;;;;4863175;29;20215;-75
2022/01/07 13:39:03;;;;;;;0.57;0.20;;;5.90;99.90;;;;;;4859515;29;20208;-76
2022/01/07 13:41:32;;;;;;;1.40;0.17;;;5.70;99.90;;;;;;4861469;29;20216;-75
2022/01/07 13:44:05;;;;;;;0.97;0.20;;;5.80;99.90;;;;;;4861315;29;20574;-75
2022/01/07 13:46:36;;;;;;;1.90;0.30;;;5.80;99.90;;;;;;4861389;29;20231;-75
2022/01/07 13:49:05;;;;;;;2.00;0.27;;;5.80;99.90;;;;;;4861339;29;20303;-74
2022/01/07 13:51:34;;;;;;;1.80;0.33;;;5.80;99.90;;;;;;4861155;29;20240;-76
2022/01/07 13:54:06;;;;;;;0.80;0.30;;;5.70;99.90;;;;;;4861413;29;20235;-81
2022/01/07 13:56:35;;;;;;;0.30;0.20;;;5.70;99.90;;;;;;4861742;29;20222;-81
2022/01/07 13:59:03;;;;;;;0.33;0.20;;;5.60;99.90;;;;;;4864195;29;20246;-77
2022/01/07 14:01:30;;;;;;;1.50;0.23;;;5.60;99.90;;;;;;4863992;29;20223;-83
2022/01/07 14:03:57;;;;;;;1.30;0.40;;;5.50;99.90;;;;;;4865415;29;20220;-79
2022/01/07 14:06:25;;;;;;;1.00;0.40;;;5.40;99.90;;;;;;4865905;29;20671;-78
2022/01/07 14:09:17;;;;;;;1.67;0.50;;;5.40;99.90;;;;;;4861974;29;20302;-79
2022/01/07 14:12:02;;;;;;;0.53;0.30;;;5.40;99.90;;;;;;4862491;29;20247;-79
2022/01/07 14:14:36;;;;;;;0.40;0.30;;;5.60;99.90;;;;;;4861932;29;20223;-81
2022/01/07 14:17:10;;;;;;;1.30;0.23;;;5.60;99.90;;;;;;4861083;29;20214;-75
2022/01/07 14:19:54;;;;;;;0.47;0.30;;;5.70;99.90;;;;;;4857049;29;20223;-76
2022/01/07 14:22:20;;;;;;;0.73;0.30;;;5.70;99.90;;;;;;4859299;29;20243;-75
2022/01/07 14:24:47;;;;;;;2.27;0.40;;;5.70;99.90;;;;;;4862682;29;20216;-75
2022/01/07 14:27:26;;;;;;;0.77;0.53;;;5.70;99.90;;;;;;4862294;29;20207;-76
2022/01/07 14:29:53;;;;;;;0.50;0.30;;;5.70;99.90;;;;;;4862482;29;20222;-75
2022/01/07 14:32:20;;;;;;;1.43;0.30;;;5.60;99.90;;;;;;4862070;29;20240;-75
2022/01/07 14:34:48;;;;;;;2.47;0.43;;;5.60;99.90;;;;;;4862860;29;20219;-75
2022/01/07 14:37:15;;;;;;;1.00;0.50;;;5.50;99.90;;;;;;4862267;29;20216;-75
2022/01/07 14:39:44;;;;;;;1.50;0.50;;;5.40;99.90;;;;;;4862091;29;20212;-75
2022/01/07 14:42:11;;;;;;;0.87;0.30;;;5.40;99.90;;;;;;4862032;29;20720;-72
2022/01/07 14:44:39;;;;;;;2.93;0.30;;;5.10;99.90;;;;;;4862009;29;20299;-73
2022/01/07 14:47:06;;;;;;;1.90;0.13;;;5.00;99.90;;;;;;4862298;29;20220;-74
2022/01/07 14:49:34;;;;;;;0.30;0.20;;;5.00;99.90;;;;;;4862329;29;20212;-75
2022/01/07 14:52:00;;;;;;;0.60;0.20;;;4.70;99.90;;;;;;4862383;29;20243;-75
2022/01/07 14:54:27;;;;;;;1.07;0.13;;;4.60;99.90;;;;;;4862215;29;20211;-75
2022/01/07 14:56:54;;;;;;;0.93;0.40;;;4.50;99.90;;;;;;4861960;29;20304;-75
2022/01/07 14:59:21;;;;;;;1.67;0.40;;;4.30;99.90;;;;;;4861849;29;20212;-74
2022/01/07 15:01:50;;;;;;;0.73;0.20;;;4.10;99.90;;;;;;4862001;29;20220;-74
2022/01/07 15:04:17;;;;;;;1.20;0.30;;;4.00;99.90;;;;;;4862088;29;20215;-74
2022/01/07 15:06:45;;;;;;;1.23;0.30;;;3.90;99.90;;;;;;4861677;29;20672;-74
2022/01/07 15:09:12;;;;;;;0.90;0.40;;;3.90;99.90;;;;;;4861865;29;20212;-74
2022/01/07 15:11:39;;;;;;;1.90;0.37;;;3.80;99.90;;;;;;4860860;29;20208;-74
2022/01/07 15:14:06;;;;;;;0.37;0.30;;;3.80;99.90;;;;;;4861690;29;20212;-75
2022/01/07 15:16:36;;;;;;;0.77;0.30;;;3.60;99.90;;;;;;4861278;29;20678;-75
2022/01/07 15:19:04;;;;;;;2.27;0.97;;;3.50;99.90;;;;;;4861720;29;20208;-74
2022/01/07 15:21:34;;;;;;;0.50;0.13;;;3.40;99.90;;;;;;4861464;29;20212;-74
2022/01/07 15:24:02;;;;;;;1.60;0.50;;;3.40;99.90;;;;;;4861675;29;20216;-74
2022/01/07 15:26:30;;;;;;;0.57;0.20;;;3.40;99.90;;;;;;4861290;29;20267;-75
2022/01/07 15:28:57;;;;;;;0.60;0.20;;;3.30;99.90;;;;;;4861414;29;20667;-74
2022/01/07 15:31:24;;;;;;;1.50;0.40;;;3.30;99.90;;;;;;4861445;29;20299;-75
2022/01/07 15:33:59;;;;;;;3.03;0.43;;;3.30;99.90;;;;;;5152039;27;20555;-73
2022/01/07 15:36:28;;;;;;;0.60;0.30;;;3.20;99.90;;;;;;5151629;27;20196;-73
2022/01/07 15:38:55;;;;;;;0.43;0.30;;;3.10;99.90;;;;;;5151827;27;20200;-73
2022/01/07 15:41:22;;;;;;;0.63;0.20;;;3.10;99.90;;;;;;5152016;27;20210;-73
2022/01/07 15:43:49;;;;;;;0.20;0.20;;;3.00;99.90;;;;;;5150360;27;20224;-73
2022/01/07 21:46:12;;;;;;;3.70;1.13;;;5.30;99.90;;;;;;5468934;22;20599;-74
2022/01/07 21:48:38;;;;;;;2.57;1.10;;;5.20;99.90;;;;;;5019520;28;20205;-74
2022/01/07 21:51:05;;;;;;;2.60;1.17;;;5.10;99.90;;;;;;5014105;28;20214;-76
2022/01/07 21:53:32;;;;;;;2.70;1.00;;;5.10;99.90;;;;;;5017768;28;20264;-74
2022/01/07 21:55:59;;;;;;;4.93;1.37;;;5.10;99.90;;;;;;5016965;28;20202;-75
2022/01/07 21:58:26;;;;;;;4.77;0.80;;;5.10;99.90;;;;;;5016605;28;20244;-74
2022/01/07 22:00:53;;;;;;;4.10;1.43;;;5.00;99.90;;;;;;5016356;28;20209;-74
2022/01/07 22:03:22;;;;;;;3.73;1.00;;;4.80;99.90;;;;;;5015655;28;20233;-74
2022/01/07 22:05:50;;;;;;;1.60;0.70;;;4.80;99.90;;;;;;5016592;28;20208;-74
2022/01/07 22:08:17;;;;;;;2.63;0.80;;;4.70;99.90;;;;;;5014519;28;20339;-74
2022/01/07 22:10:44;;;;;;;5.03;1.00;;;4.70;99.90;;;;;;5012491;28;20236;-74
2022/01/07 22:13:11;;;;;;;4.50;1.10;;;4.70;99.90;;;;;;5014349;28;20245;-74
2022/01/07 22:15:38;;;;;;;2.10;0.97;;;4.70;99.90;;;;;;5016179;28;20644;-74
2022/01/07 22:18:05;;;;;;;2.47;0.87;;;4.70;99.90;;;;;;5016575;28;20213;-75
2022/01/07 22:20:33;;;;;;;2.80;0.73;;;4.70;99.90;;;;;;5015506;28;20228;-75
2022/01/07 22:23:01;;;;;;;3.93;0.73;;;4.60;99.90;;;;;;5011099;28;20229;-74
2022/01/07 22:25:28;;;;;;;6.07;1.13;;;4.50;99.90;;;;;;5021110;28;20201;-74
2022/01/07 22:27:54;;;;;;;2.67;0.73;;;4.70;99.90;;;;;;5014087;28;20205;-74
2022/01/07 22:30:21;;;;;;;5.87;1.20;;;4.60;99.90;;;;;;5017794;28;20205;-75
2022/01/07 22:32:48;;;;;;;1.90;1.10;;;4.50;99.90;;;;;;5013128;28;20229;-74
2022/01/07 22:35:15;;;;;;;3.23;1.50;;;4.40;99.90;;;;;;5012101;28;20200;-75
2022/01/07 22:37:43;;;;;;;2.87;1.40;;;4.50;99.90;;;;;;5011684;28;20238;-75
